sensor_id;sensor_type;location;lat;lon;timestamp;P1;durP1;ratioP1;P2;durP2;ratioP2
79173;SDS011;68599;49.142;9.124;2023-12-20T00:01:55;2.30;;;1.40;;
79173;SDS011;68599;49.142;9.124;2023-12-20T00:04:22;4.10;;;1.70;;
79173;SDS011;68599;49.142;9.124;2023-12-20T00:06:49;3.30;;;1.50;;
79173;SDS011;68599;49.142;9.124;2023-12-20T00:09:16;2.50;;;1.40;;
79173;SDS011;68599;49.142;9.124;2023-12-20T00:11:43;2.40;;;1.50;;
79173;SDS011;68599;49.142;9.124;2023-12-20T00:14:09;3.00;;;1.40;;
79173;SDS011;68599;49.142;9.124;2023-12-20T00:16:36;1.90;;;0.80;;
79173;SDS011;68599;49.142;9.124;2023-12-20T00:19:02;2.20;;;1.10;;
79173;SDS011;68599;49.142;9.124;2023-12-20T00:21:29;3.20;;;1.00;;
79173;SDS011;68599;49.142;9.124;2023-12-20T00:23:56;2.80;;;1.00;;
79173;SDS011;68599;49.142;9.124;2023-12-20T00:26:22;1.70;;;1.00;;
79173;SDS011;68599;49.142;9.124;2023-12-20T00:28:49;2.00;;;1.10;;
79173;SDS011;68599;49.142;9.124;2023-12-20T00:31:15;3.70;;;1.40;;
79173;SDS011;68599;49.142;9.124;2023-12-20T00:33:42;1.80;;;0.80;;
79173;SDS011;68599;49.142;9.124;2023-12-20T00:36:10;1.70;;;1.00;;
79173;SDS011;68599;49.142;9.124;2023-12-20T00:38:37;1.90;;;0.90;;
79173;SDS011;68599;49.142;9.124;2023-12-20T00:41:03;2.10;;;0.90;;
79173;SDS011;68599;49.142;9.124;2023-12-20T00:43:30;2.80;;;1.20;;
79173;SDS011;68599;49.142;9.124;2023-12-20T00:45:56;2.20;;;1.00;;
79173;SDS011;68599;49.142;9.124;2023-12-20T00:48:23;2.10;;;1.00;;
79173;SDS011;68599;49.142;9.124;2023-12-20T00:50:50;1.90;;;0.90;;
79173;SDS011;68599;49.142;9.124;2023-12-20T00:53:16;2.20;;;0.90;;
79173;SDS011;68599;49.142;9.124;2023-12-20T00:55:43;2.80;;;1.10;;
79173;SDS011;68599;49.142;9.124;2023-12-20T00:58:11;2.90;;;1.20;;
79173;SDS011;68599;49.142;9.124;2023-12-20T01:00:38;2.10;;;1.10;;
79173;SDS011;68599;49.142;9.124;2023-12-20T01:03:08;2.10;;;1.10;;
79173;SDS011;68599;49.142;9.124;2023-12-20T01:05:34;1.50;;;0.80;;
79173;SDS011;68599;49.142;9.124;2023-12-20T01:08:01;1.90;;;1.00;;
79173;SDS011;68599;49.142;9.124;2023-12-20T01:10:29;1.60;;;0.90;;
79173;SDS011;68599;49.142;9.124;2023-12-20T01:12:56;2.30;;;0.80;;
79173;SDS011;68599;49.142;9.124;2023-12-20T01:15:22;1.10;;;0.60;;
79173;SDS011;68599;49.142;9.124;2023-12-20T01:17:49;1.70;;;1.10;;
79173;SDS011;68599;49.142;9.124;2023-12-20T01:20:16;1.90;;;1.10;;
79173;SDS011;68599;49.142;9.124;2023-12-20T01:22:43;1.80;;;0.90;;
79173;SDS011;68599;49.142;9.124;2023-12-20T01:25:12;1.00;;;0.50;;
79173;SDS011;68599;49.142;9.124;2023-12-20T01:27:39;2.40;;;1.30;;
79173;SDS011;68599;49.142;9.124;2023-12-20T01:30:05;1.80;;;0.80;;
79173;SDS011;68599;49.142;9.124;2023-12-20T01:32:33;2.60;;;1.10;;
79173;SDS011;68599;49.142;9.124;2023-12-20T01:34:59;1.20;;;0.50;;
79173;SDS011;68599;49.142;9.124;2023-12-20T01:37:28;1.70;;;1.00;;
79173;SDS011;68599;49.142;9.124;2023-12-20T01:39:56;1.10;;;0.60;;
79173;SDS011;68599;49.142;9.124;2023-12-20T01:42:22;1.50;;;0.80;;
79173;SDS011;68599;49.142;9.124;2023-12-20T01:44:49;1.70;;;0.80;;
79173;SDS011;68599;49.142;9.124;2023-12-20T01:47:16;0.80;;;0.50;;
79173;SDS011;68599;49.142;9.124;2023-12-20T01:49:43;1.60;;;0.80;;
79173;SDS011;68599;49.142;9.124;2023-12-20T01:52:10;1.60;;;0.70;;
79173;SDS011;68599;49.142;9.124;2023-12-20T01:54:38;2.20;;;0.80;;
79173;SDS011;68599;49.142;9.124;2023-12-20T01:57:08;1.30;;;0.70;;
79173;SDS011;68599;49.142;9.124;2023-12-20T01:59:36;1.50;;;0.60;;
79173;SDS011;68599;49.142;9.124;2023-12-20T02:02:05;1.20;;;0.60;;
79173;SDS011;68599;49.142;9.124;2023-12-20T02:04:34;0.80;;;0.40;;
79173;SDS011;68599;49.142;9.124;2023-12-20T02:09:29;1.30;;;0.60;;
79173;SDS011;68599;49.142;9.124;2023-12-20T02:11:55;0.60;;;0.40;;
79173;SDS011;68599;49.142;9.124;2023-12-20T02:14:22;2.50;;;0.60;;
79173;SDS011;68599;49.142;9.124;2023-12-20T02:16:49;0.70;;;0.50;;
79173;SDS011;68599;49.142;9.124;2023-12-20T02:19:15;1.40;;;0.80;;
79173;SDS011;68599;49.142;9.124;2023-12-20T02:21:44;2.00;;;0.60;;
79173;SDS011;68599;49.142;9.124;2023-12-20T02:24:10;0.60;;;0.20;;
79173;SDS011;68599;49.142;9.124;2023-12-20T02:26:37;1.00;;;0.40;;
79173;SDS011;68599;49.142;9.124;2023-12-20T02:29:03;2.90;;;0.50;;
79173;SDS011;68599;49.142;9.124;2023-12-20T02:31:30;1.00;;;0.60;;
79173;SDS011;68599;49.142;9.124;2023-12-20T02:33:57;0.70;;;0.30;;
79173;SDS011;68599;49.142;9.124;2023-12-20T02:36:24;0.70;;;0.40;;
79173;SDS011;68599;49.142;9.124;2023-12-20T02:38:50;0.50;;;0.30;;
79173;SDS011;68599;49.142;9.124;2023-12-20T02:41:17;1.10;;;0.50;;
79173;SDS011;68599;49.142;9.124;2023-12-20T02:43:44;0.80;;;0.40;;
79173;SDS011;68599;49.142;9.124;2023-12-20T02:46:11;1.30;;;0.60;;
79173;SDS011;68599;49.142;9.124;2023-12-20T02:48:40;0.70;;;0.40;;
79173;SDS011;68599;49.142;9.124;2023-12-20T02:51:07;3.10;;;0.60;;
79173;SDS011;68599;49.142;9.124;2023-12-20T02:53:33;1.50;;;0.70;;
79173;SDS011;68599;49.142;9.124;2023-12-20T02:56:00;0.50;;;0.30;;
79173;SDS011;68599;49.142;9.124;2023-12-20T02:58:26;1.30;;;0.60;;
79173;SDS011;68599;49.142;9.124;2023-12-20T03:00:53;1.00;;;0.50;;
79173;SDS011;68599;49.142;9.124;2023-12-20T03:03:19;0.40;;;0.20;;
79173;SDS011;68599;49.142;9.124;2023-12-20T03:05:46;0.40;;;0.20;;
79173;SDS011;68599;49.142;9.124;2023-12-20T03:08:13;0.80;;;0.40;;
79173;SDS011;68599;49.142;9.124;2023-12-20T03:10:39;0.90;;;0.50;;
79173;SDS011;68599;49.142;9.124;2023-12-20T03:13:06;0.60;;;0.40;;
79173;SDS011;68599;49.142;9.124;2023-12-20T03:15:33;2.00;;;0.30;;
79173;SDS011;68599;49.142;9.124;2023-12-20T03:17:59;0.30;;;0.30;;
79173;SDS011;68599;49.142;9.124;2023-12-20T03:20:26;0.60;;;0.30;;
79173;SDS011;68599;49.142;9.124;2023-12-20T03:22:52;1.10;;;0.50;;
79173;SDS011;68599;49.142;9.124;2023-12-20T03:25:19;0.50;;;0.40;;
79173;SDS011;68599;49.142;9.124;2023-12-20T03:27:45;0.40;;;0.20;;
79173;SDS011;68599;49.142;9.124;2023-12-20T03:30:12;0.80;;;0.30;;
79173;SDS011;68599;49.142;9.124;2023-12-20T03:32:39;0.90;;;0.40;;
79173;SDS011;68599;49.142;9.124;2023-12-20T03:35:06;1.10;;;0.70;;
79173;SDS011;68599;49.142;9.124;2023-12-20T03:37:33;1.10;;;0.50;;
79173;SDS011;68599;49.142;9.124;2023-12-20T03:40:00;1.30;;;0.60;;
79173;SDS011;68599;49.142;9.124;2023-12-20T03:42:27;0.90;;;0.50;;
79173;SDS011;68599;49.142;9.124;2023-12-20T03:44:53;0.80;;;0.40;;
79173;SDS011;68599;49.142;9.124;2023-12-20T03:47:20;0.70;;;0.40;;
79173;SDS011;68599;49.142;9.124;2023-12-20T03:49:46;0.70;;;0.30;;
79173;SDS011;68599;49.142;9.124;2023-12-20T03:52:13;0.50;;;0.20;;
79173;SDS011;68599;49.142;9.124;2023-12-20T03:54:40;0.70;;;0.40;;
79173;SDS011;68599;49.142;9.124;2023-12-20T03:57:08;0.70;;;0.40;;
79173;SDS011;68599;49.142;9.124;2023-12-20T03:59:35;1.00;;;0.40;;
79173;SDS011;68599;49.142;9.124;2023-12-20T04:02:03;0.50;;;0.30;;
79173;SDS011;68599;49.142;9.124;2023-12-20T04:04:30;0.40;;;0.30;;
79173;SDS011;68599;49.142;9.124;2023-12-20T04:06:57;1.00;;;0.60;;
79173;SDS011;68599;49.142;9.124;2023-12-20T04:09:24;0.50;;;0.30;;
79173;SDS011;68599;49.142;9.124;2023-12-20T04:11:50;0.80;;;0.50;;
79173;SDS011;68599;49.142;9.124;2023-12-20T04:14:17;0.70;;;0.40;;
79173;SDS011;68599;49.142;9.124;2023-12-20T04:16:43;0.60;;;0.30;;
79173;SDS011;68599;49.142;9.124;2023-12-20T04:19:13;0.70;;;0.30;;
79173;SDS011;68599;49.142;9.124;2023-12-20T04:21:39;0.80;;;0.40;;
79173;SDS011;68599;49.142;9.124;2023-12-20T04:24:06;0.80;;;0.30;;
79173;SDS011;68599;49.142;9.124;2023-12-20T04:26:33;1.60;;;0.40;;
79173;SDS011;68599;49.142;9.124;2023-12-20T04:28:59;0.50;;;0.20;;
79173;SDS011;68599;49.142;9.124;2023-12-20T04:31:26;2.50;;;0.50;;
79173;SDS011;68599;49.142;9.124;2023-12-20T04:33:52;0.80;;;0.50;;
79173;SDS011;68599;49.142;9.124;2023-12-20T04:36:19;0.60;;;0.40;;
79173;SDS011;68599;49.142;9.124;2023-12-20T04:38:46;0.70;;;0.30;;
79173;SDS011;68599;49.142;9.124;2023-12-20T04:41:12;0.80;;;0.40;;
79173;SDS011;68599;49.142;9.124;2023-12-20T04:43:42;0.80;;;0.40;;
79173;SDS011;68599;49.142;9.124;2023-12-20T04:46:08;0.70;;;0.40;;
79173;SDS011;68599;49.142;9.124;2023-12-20T04:48:35;0.80;;;0.40;;
79173;SDS011;68599;49.142;9.124;2023-12-20T04:51:03;0.90;;;0.30;;
79173;SDS011;68599;49.142;9.124;2023-12-20T04:53:29;0.80;;;0.30;;
79173;SDS011;68599;49.142;9.124;2023-12-20T04:55:56;0.60;;;0.20;;
79173;SDS011;68599;49.142;9.124;2023-12-20T04:58:23;0.70;;;0.30;;
79173;SDS011;68599;49.142;9.124;2023-12-20T05:00:50;1.20;;;0.50;;
79173;SDS011;68599;49.142;9.124;2023-12-20T05:03:17;1.00;;;0.60;;
79173;SDS011;68599;49.142;9.124;2023-12-20T05:05:43;0.60;;;0.30;;
79173;SDS011;68599;49.142;9.124;2023-12-20T05:08:10;0.80;;;0.40;;
79173;SDS011;68599;49.142;9.124;2023-12-20T05:10:37;1.10;;;0.60;;
79173;SDS011;68599;49.142;9.124;2023-12-20T05:13:03;1.10;;;0.60;;
79173;SDS011;68599;49.142;9.124;2023-12-20T05:15:30;2.10;;;0.60;;
79173;SDS011;68599;49.142;9.124;2023-12-20T05:17:56;2.00;;;0.60;;
79173;SDS011;68599;49.142;9.124;2023-12-20T05:20:23;0.80;;;0.50;;
79173;SDS011;68599;49.142;9.124;2023-12-20T05:22:50;1.30;;;0.60;;
79173;SDS011;68599;49.142;9.124;2023-12-20T05:25:16;1.70;;;0.80;;
79173;SDS011;68599;49.142;9.124;2023-12-20T05:27:43;0.80;;;0.40;;
79173;SDS011;68599;49.142;9.124;2023-12-20T05:30:10;3.50;;;1.60;;
79173;SDS011;68599;49.142;9.124;2023-12-20T05:32:37;4.80;;;1.20;;
79173;SDS011;68599;49.142;9.124;2023-12-20T05:35:04;1.90;;;0.90;;
79173;SDS011;68599;49.142;9.124;2023-12-20T05:37:31;1.90;;;0.70;;
79173;SDS011;68599;49.142;9.124;2023-12-20T05:39:57;5.40;;;2.70;;
79173;SDS011;68599;49.142;9.124;2023-12-20T05:42:24;7.70;;;2.90;;
79173;SDS011;68599;49.142;9.124;2023-12-20T05:44:51;3.40;;;1.40;;
79173;SDS011;68599;49.142;9.124;2023-12-20T05:47:20;1.60;;;0.80;;
79173;SDS011;68599;49.142;9.124;2023-12-20T05:49:47;0.90;;;0.60;;
79173;SDS011;68599;49.142;9.124;2023-12-20T05:52:14;1.10;;;0.50;;
79173;SDS011;68599;49.142;9.124;2023-12-20T05:54:41;0.70;;;0.40;;
79173;SDS011;68599;49.142;9.124;2023-12-20T05:57:08;1.00;;;0.60;;
79173;SDS011;68599;49.142;9.124;2023-12-20T05:59:34;1.10;;;0.50;;
79173;SDS011;68599;49.142;9.124;2023-12-20T06:02:02;0.70;;;0.40;;
79173;SDS011;68599;49.142;9.124;2023-12-20T06:04:30;2.00;;;0.50;;
79173;SDS011;68599;49.142;9.124;2023-12-20T06:06:56;0.80;;;0.50;;
79173;SDS011;68599;49.142;9.124;2023-12-20T06:09:23;1.40;;;0.70;;
79173;SDS011;68599;49.142;9.124;2023-12-20T06:11:50;1.20;;;0.70;;
79173;SDS011;68599;49.142;9.124;2023-12-20T06:14:17;1.30;;;0.70;;
79173;SDS011;68599;49.142;9.124;2023-12-20T06:16:44;1.90;;;0.80;;
79173;SDS011;68599;49.142;9.124;2023-12-20T06:19:12;1.60;;;0.80;;
79173;SDS011;68599;49.142;9.124;2023-12-20T06:21:38;1.50;;;0.70;;
79173;SDS011;68599;49.142;9.124;2023-12-20T06:24:08;1.20;;;0.50;;
79173;SDS011;68599;49.142;9.124;2023-12-20T06:26:35;2.10;;;0.70;;
79173;SDS011;68599;49.142;9.124;2023-12-20T06:29:02;1.60;;;0.80;;
79173;SDS011;68599;49.142;9.124;2023-12-20T06:31:29;1.40;;;0.80;;
79173;SDS011;68599;49.142;9.124;2023-12-20T06:33:55;1.80;;;0.90;;
79173;SDS011;68599;49.142;9.124;2023-12-20T06:36:24;1.20;;;0.70;;
79173;SDS011;68599;49.142;9.124;2023-12-20T06:38:51;1.30;;;0.90;;
79173;SDS011;68599;49.142;9.124;2023-12-20T06:41:17;1.90;;;0.80;;
79173;SDS011;68599;49.142;9.124;2023-12-20T06:43:44;1.80;;;1.10;;
79173;SDS011;68599;49.142;9.124;2023-12-20T06:46:16;2.30;;;1.10;;
79173;SDS011;68599;49.142;9.124;2023-12-20T06:48:43;3.20;;;1.20;;
79173;SDS011;68599;49.142;9.124;2023-12-20T06:51:16;2.00;;;0.80;;
79173;SDS011;68599;49.142;9.124;2023-12-20T06:53:43;1.60;;;1.10;;
79173;SDS011;68599;49.142;9.124;2023-12-20T06:56:10;1.60;;;0.90;;
79173;SDS011;68599;49.142;9.124;2023-12-20T06:58:43;1.10;;;0.70;;
79173;SDS011;68599;49.142;9.124;2023-12-20T07:01:13;1.20;;;0.70;;
79173;SDS011;68599;49.142;9.124;2023-12-20T07:03:41;1.30;;;1.00;;
79173;SDS011;68599;49.142;9.124;2023-12-20T07:06:08;1.90;;;1.00;;
79173;SDS011;68599;49.142;9.124;2023-12-20T07:08:35;1.30;;;1.00;;
79173;SDS011;68599;49.142;9.124;2023-12-20T07:11:01;2.20;;;1.10;;
79173;SDS011;68599;49.142;9.124;2023-12-20T07:13:28;2.20;;;1.10;;
79173;SDS011;68599;49.142;9.124;2023-12-20T07:15:56;2.10;;;1.00;;
79173;SDS011;68599;49.142;9.124;2023-12-20T07:18:23;2.10;;;0.90;;
79173;SDS011;68599;49.142;9.124;2023-12-20T07:20:50;1.80;;;1.10;;
79173;SDS011;68599;49.142;9.124;2023-12-20T07:23:16;2.00;;;1.00;;
79173;SDS011;68599;49.142;9.124;2023-12-20T07:25:43;2.50;;;1.20;;
79173;SDS011;68599;49.142;9.124;2023-12-20T07:28:09;2.60;;;1.60;;
79173;SDS011;68599;49.142;9.124;2023-12-20T07:30:36;1.60;;;0.90;;
79173;SDS011;68599;49.142;9.124;2023-12-20T07:33:02;2.60;;;1.20;;
79173;SDS011;68599;49.142;9.124;2023-12-20T07:35:31;2.70;;;1.70;;
79173;SDS011;68599;49.142;9.124;2023-12-20T07:37:57;2.30;;;1.30;;
79173;SDS011;68599;49.142;9.124;2023-12-20T07:40:24;1.80;;;1.20;;
79173;SDS011;68599;49.142;9.124;2023-12-20T07:42:51;3.30;;;1.70;;
79173;SDS011;68599;49.142;9.124;2023-12-20T07:45:18;3.90;;;1.50;;
79173;SDS011;68599;49.142;9.124;2023-12-20T07:47:44;5.90;;;3.20;;
79173;SDS011;68599;49.142;9.124;2023-12-20T07:50:11;2.60;;;1.40;;
79173;SDS011;68599;49.142;9.124;2023-12-20T07:52:38;3.40;;;1.40;;
79173;SDS011;68599;49.142;9.124;2023-12-20T07:55:05;2.10;;;1.10;;
79173;SDS011;68599;49.142;9.124;2023-12-20T07:59:59;2.10;;;1.10;;
79173;SDS011;68599;49.142;9.124;2023-12-20T08:02:25;1.40;;;0.80;;
79173;SDS011;68599;49.142;9.124;2023-12-20T08:04:52;1.90;;;0.90;;
79173;SDS011;68599;49.142;9.124;2023-12-20T08:07:19;2.20;;;1.00;;
79173;SDS011;68599;49.142;9.124;2023-12-20T08:09:45;1.20;;;0.70;;
79173;SDS011;68599;49.142;9.124;2023-12-20T08:12:12;1.40;;;0.80;;
79173;SDS011;68599;49.142;9.124;2023-12-20T08:14:39;2.00;;;1.10;;
79173;SDS011;68599;49.142;9.124;2023-12-20T08:17:05;1.70;;;1.10;;
79173;SDS011;68599;49.142;9.124;2023-12-20T08:19:32;1.80;;;1.00;;
79173;SDS011;68599;49.142;9.124;2023-12-20T08:21:59;1.80;;;1.00;;
79173;SDS011;68599;49.142;9.124;2023-12-20T08:24:25;2.20;;;1.20;;
79173;SDS011;68599;49.142;9.124;2023-12-20T08:26:52;3.10;;;1.40;;
79173;SDS011;68599;49.142;9.124;2023-12-20T08:29:19;2.00;;;1.20;;
79173;SDS011;68599;49.142;9.124;2023-12-20T08:31:45;3.60;;;1.40;;
79173;SDS011;68599;49.142;9.124;2023-12-20T08:34:13;2.20;;;1.20;;
79173;SDS011;68599;49.142;9.124;2023-12-20T08:36:41;2.00;;;0.80;;
79173;SDS011;68599;49.142;9.124;2023-12-20T08:39:08;3.00;;;0.80;;
79173;SDS011;68599;49.142;9.124;2023-12-20T08:41:35;2.80;;;1.10;;
79173;SDS011;68599;49.142;9.124;2023-12-20T08:44:03;1.50;;;0.90;;
79173;SDS011;68599;49.142;9.124;2023-12-20T08:46:30;1.50;;;0.80;;
79173;SDS011;68599;49.142;9.124;2023-12-20T08:48:57;1.50;;;0.70;;
79173;SDS011;68599;49.142;9.124;2023-12-20T08:51:24;2.00;;;1.00;;
79173;SDS011;68599;49.142;9.124;2023-12-20T08:53:52;1.30;;;0.60;;
79173;SDS011;68599;49.142;9.124;2023-12-20T08:58:45;1.30;;;0.80;;
79173;SDS011;68599;49.142;9.124;2023-12-20T09:01:13;1.80;;;0.90;;
79173;SDS011;68599;49.142;9.124;2023-12-20T09:03:40;2.50;;;1.10;;
79173;SDS011;68599;49.142;9.124;2023-12-20T09:06:07;2.10;;;0.80;;
79173;SDS011;68599;49.142;9.124;2023-12-20T09:08:34;1.60;;;0.80;;
79173;SDS011;68599;49.142;9.124;2023-12-20T09:13:27;1.40;;;0.80;;
79173;SDS011;68599;49.142;9.124;2023-12-20T09:15:55;2.40;;;1.00;;
79173;SDS011;68599;49.142;9.124;2023-12-20T09:18:23;2.50;;;1.00;;
79173;SDS011;68599;49.142;9.124;2023-12-20T09:20:49;2.50;;;0.90;;
79173;SDS011;68599;49.142;9.124;2023-12-20T09:23:16;1.30;;;1.10;;
79173;SDS011;68599;49.142;9.124;2023-12-20T09:25:44;1.80;;;0.90;;
79173;SDS011;68599;49.142;9.124;2023-12-20T09:30:37;3.20;;;1.40;;
79173;SDS011;68599;49.142;9.124;2023-12-20T09:33:07;4.00;;;0.90;;
79173;SDS011;68599;49.142;9.124;2023-12-20T09:35:34;3.00;;;1.10;;
79173;SDS011;68599;49.142;9.124;2023-12-20T09:38:01;2.70;;;1.00;;
79173;SDS011;68599;49.142;9.124;2023-12-20T09:40:28;1.60;;;1.00;;
79173;SDS011;68599;49.142;9.124;2023-12-20T09:45:24;2.10;;;0.90;;
79173;SDS011;68599;49.142;9.124;2023-12-20T09:47:54;2.70;;;1.10;;
79173;SDS011;68599;49.142;9.124;2023-12-20T09:50:22;2.60;;;1.00;;
79173;SDS011;68599;49.142;9.124;2023-12-20T09:52:50;4.50;;;1.00;;
79173;SDS011;68599;49.142;9.124;2023-12-20T09:55:18;3.40;;;0.90;;
79173;SDS011;68599;49.142;9.124;2023-12-20T09:57:47;2.20;;;1.20;;
79173;SDS011;68599;49.142;9.124;2023-12-20T10:00:15;2.50;;;1.20;;
79173;SDS011;68599;49.142;9.124;2023-12-20T10:02:50;4.10;;;1.40;;
79173;SDS011;68599;49.142;9.124;2023-12-20T10:05:18;3.30;;;1.10;;
79173;SDS011;68599;49.142;9.124;2023-12-20T10:07:46;3.00;;;1.00;;
79173;SDS011;68599;49.142;9.124;2023-12-20T10:10:14;4.50;;;1.30;;
79173;SDS011;68599;49.142;9.124;2023-12-20T10:12:42;2.60;;;1.20;;
79173;SDS011;68599;49.142;9.124;2023-12-20T10:15:30;2.70;;;0.90;;
79173;SDS011;68599;49.142;9.124;2023-12-20T10:17:57;2.50;;;1.10;;
79173;SDS011;68599;49.142;9.124;2023-12-20T10:20:27;2.70;;;1.10;;
79173;SDS011;68599;49.142;9.124;2023-12-20T10:22:56;2.80;;;0.70;;
79173;SDS011;68599;49.142;9.124;2023-12-20T10:25:24;3.50;;;1.20;;
79173;SDS011;68599;49.142;9.124;2023-12-20T10:30:43;2.30;;;0.90;;
79173;SDS011;68599;49.142;9.124;2023-12-20T10:33:10;3.60;;;1.30;;
79173;SDS011;68599;49.142;9.124;2023-12-20T10:35:38;3.20;;;1.10;;
79173;SDS011;68599;49.142;9.124;2023-12-20T10:38:10;3.80;;;0.90;;
79173;SDS011;68599;49.142;9.124;2023-12-20T10:40:38;3.30;;;1.30;;
79173;SDS011;68599;49.142;9.124;2023-12-20T10:43:05;2.40;;;0.80;;
79173;SDS011;68599;49.142;9.124;2023-12-20T10:45:32;1.80;;;0.80;;
79173;SDS011;68599;49.142;9.124;2023-12-20T10:48:00;5.00;;;1.10;;
79173;SDS011;68599;49.142;9.124;2023-12-20T10:50:28;2.50;;;0.90;;
79173;SDS011;68599;49.142;9.124;2023-12-20T10:52:57;3.80;;;1.00;;
79173;SDS011;68599;49.142;9.124;2023-12-20T10:55:24;2.40;;;1.00;;
79173;SDS011;68599;49.142;9.124;2023-12-20T10:57:52;3.80;;;1.30;;
79173;SDS011;68599;49.142;9.124;2023-12-20T11:00:23;4.10;;;1.00;;
79173;SDS011;68599;49.142;9.124;2023-12-20T11:02:50;2.40;;;1.10;;
79173;SDS011;68599;49.142;9.124;2023-12-20T11:05:36;3.60;;;1.30;;
79173;SDS011;68599;49.142;9.124;2023-12-20T11:08:13;2.80;;;1.00;;
79173;SDS011;68599;49.142;9.124;2023-12-20T11:16:13;2.60;;;0.90;;
79173;SDS011;68599;49.142;9.124;2023-12-20T11:18:40;3.00;;;0.90;;
79173;SDS011;68599;49.142;9.124;2023-12-20T11:21:07;2.40;;;0.90;;
79173;SDS011;68599;49.142;9.124;2023-12-20T11:23:34;1.90;;;0.80;;
79173;SDS011;68599;49.142;9.124;2023-12-20T11:26:01;6.10;;;1.60;;
79173;SDS011;68599;49.142;9.124;2023-12-20T11:28:29;2.90;;;0.90;;
79173;SDS011;68599;49.142;9.124;2023-12-20T11:31:00;4.30;;;0.80;;
79173;SDS011;68599;49.142;9.124;2023-12-20T11:33:37;3.40;;;0.70;;
79173;SDS011;68599;49.142;9.124;2023-12-20T11:36:14;1.50;;;0.60;;
79173;SDS011;68599;49.142;9.124;2023-12-20T11:38:49;5.10;;;1.40;;
79173;SDS011;68599;49.142;9.124;2023-12-20T11:41:22;3.10;;;0.70;;
79173;SDS011;68599;49.142;9.124;2023-12-20T11:43:52;2.50;;;0.70;;
79173;SDS011;68599;49.142;9.124;2023-12-20T11:46:19;1.60;;;0.60;;
79173;SDS011;68599;49.142;9.124;2023-12-20T11:48:47;3.60;;;1.00;;
79173;SDS011;68599;49.142;9.124;2023-12-20T11:51:14;1.80;;;0.40;;
79173;SDS011;68599;49.142;9.124;2023-12-20T11:53:41;1.90;;;0.80;;
79173;SDS011;68599;49.142;9.124;2023-12-20T11:56:11;9.00;;;2.40;;
79173;SDS011;68599;49.142;9.124;2023-12-20T11:58:39;6.20;;;2.00;;
79173;SDS011;68599;49.142;9.124;2023-12-20T12:03:35;2.40;;;0.80;;
79173;SDS011;68599;49.142;9.124;2023-12-20T12:06:02;3.20;;;1.20;;
79173;SDS011;68599;49.142;9.124;2023-12-20T12:08:31;4.90;;;1.70;;
79173;SDS011;68599;49.142;9.124;2023-12-20T12:10:58;2.80;;;1.20;;
79173;SDS011;68599;49.142;9.124;2023-12-20T12:13:25;3.00;;;1.20;;
79173;SDS011;68599;49.142;9.124;2023-12-20T12:15:55;4.10;;;0.90;;
79173;SDS011;68599;49.142;9.124;2023-12-20T12:18:22;5.30;;;1.10;;
79173;SDS011;68599;49.142;9.124;2023-12-20T12:20:48;3.70;;;0.90;;
79173;SDS011;68599;49.142;9.124;2023-12-20T12:23:22;2.10;;;0.60;;
79173;SDS011;68599;49.142;9.124;2023-12-20T12:25:50;4.50;;;0.90;;
79173;SDS011;68599;49.142;9.124;2023-12-20T12:28:17;3.10;;;0.70;;
79173;SDS011;68599;49.142;9.124;2023-12-20T12:30:55;2.90;;;1.00;;
79173;SDS011;68599;49.142;9.124;2023-12-20T12:33:24;4.90;;;0.90;;
79173;SDS011;68599;49.142;9.124;2023-12-20T12:35:53;3.60;;;1.00;;
79173;SDS011;68599;49.142;9.124;2023-12-20T12:38:21;2.10;;;1.00;;
79173;SDS011;68599;49.142;9.124;2023-12-20T12:40:48;1.90;;;0.70;;
79173;SDS011;68599;49.142;9.124;2023-12-20T12:43:16;3.90;;;1.00;;
79173;SDS011;68599;49.142;9.124;2023-12-20T12:45:42;3.80;;;1.10;;
79173;SDS011;68599;49.142;9.124;2023-12-20T12:50:36;2.30;;;1.00;;
79173;SDS011;68599;49.142;9.124;2023-12-20T12:53:03;4.30;;;0.80;;
79173;SDS011;68599;49.142;9.124;2023-12-20T12:55:30;3.40;;;0.80;;
79173;SDS011;68599;49.142;9.124;2023-12-20T12:57:56;2.00;;;0.70;;
79173;SDS011;68599;49.142;9.124;2023-12-20T13:00:23;3.30;;;0.80;;
79173;SDS011;68599;49.142;9.124;2023-12-20T13:02:51;3.70;;;1.00;;
79173;SDS011;68599;49.142;9.124;2023-12-20T13:05:18;4.60;;;0.90;;
79173;SDS011;68599;49.142;9.124;2023-12-20T13:07:45;2.40;;;0.80;;
79173;SDS011;68599;49.142;9.124;2023-12-20T13:10:13;3.40;;;1.00;;
79173;SDS011;68599;49.142;9.124;2023-12-20T13:12:43;3.40;;;1.00;;
79173;SDS011;68599;49.142;9.124;2023-12-20T13:15:09;3.10;;;1.00;;
79173;SDS011;68599;49.142;9.124;2023-12-20T13:17:36;6.30;;;0.80;;
79173;SDS011;68599;49.142;9.124;2023-12-20T13:20:04;3.20;;;1.00;;
79173;SDS011;68599;49.142;9.124;2023-12-20T13:22:32;3.40;;;1.00;;
79173;SDS011;68599;49.142;9.124;2023-12-20T13:24:59;3.20;;;0.90;;
79173;SDS011;68599;49.142;9.124;2023-12-20T13:27:25;3.40;;;0.80;;
79173;SDS011;68599;49.142;9.124;2023-12-20T13:29:52;4.30;;;0.80;;
79173;SDS011;68599;49.142;9.124;2023-12-20T13:32:18;2.80;;;1.00;;
79173;SDS011;68599;49.142;9.124;2023-12-20T13:34:46;3.60;;;0.90;;
79173;SDS011;68599;49.142;9.124;2023-12-20T13:37:14;3.20;;;0.90;;
79173;SDS011;68599;49.142;9.124;2023-12-20T13:39:41;4.40;;;1.60;;
79173;SDS011;68599;49.142;9.124;2023-12-20T13:42:07;4.00;;;1.00;;
79173;SDS011;68599;49.142;9.124;2023-12-20T13:44:34;5.60;;;1.30;;
79173;SDS011;68599;49.142;9.124;2023-12-20T13:47:00;1.70;;;0.70;;
79173;SDS011;68599;49.142;9.124;2023-12-20T13:49:27;2.90;;;0.80;;
79173;SDS011;68599;49.142;9.124;2023-12-20T13:51:54;5.20;;;1.30;;
79173;SDS011;68599;49.142;9.124;2023-12-20T13:54:22;4.90;;;0.90;;
79173;SDS011;68599;49.142;9.124;2023-12-20T13:56:48;4.40;;;1.10;;
79173;SDS011;68599;49.142;9.124;2023-12-20T13:59:32;3.00;;;0.90;;
79173;SDS011;68599;49.142;9.124;2023-12-20T14:01:59;4.50;;;1.00;;
79173;SDS011;68599;49.142;9.124;2023-12-20T14:04:27;5.00;;;1.10;;
79173;SDS011;68599;49.142;9.124;2023-12-20T14:07:08;5.60;;;1.50;;
79173;SDS011;68599;49.142;9.124;2023-12-20T14:09:38;3.60;;;0.70;;
79173;SDS011;68599;49.142;9.124;2023-12-20T14:12:05;4.30;;;0.70;;
79173;SDS011;68599;49.142;9.124;2023-12-20T14:14:32;3.50;;;0.70;;
79173;SDS011;68599;49.142;9.124;2023-12-20T14:16:58;1.50;;;0.50;;
79173;SDS011;68599;49.142;9.124;2023-12-20T14:19:25;2.70;;;1.00;;
79173;SDS011;68599;49.142;9.124;2023-12-20T14:21:51;3.50;;;0.50;;
79173;SDS011;68599;49.142;9.124;2023-12-20T14:24:18;5.10;;;0.70;;
79173;SDS011;68599;49.142;9.124;2023-12-20T14:26:44;7.10;;;1.00;;
79173;SDS011;68599;49.142;9.124;2023-12-20T14:29:11;5.10;;;1.20;;
79173;SDS011;68599;49.142;9.124;2023-12-20T14:31:38;3.10;;;0.80;;
79173;SDS011;68599;49.142;9.124;2023-12-20T14:34:06;3.10;;;0.90;;
79173;SDS011;68599;49.142;9.124;2023-12-20T14:36:34;3.50;;;1.00;;
79173;SDS011;68599;49.142;9.124;2023-12-20T14:39:01;4.40;;;1.20;;
79173;SDS011;68599;49.142;9.124;2023-12-20T14:41:30;1.90;;;0.60;;
79173;SDS011;68599;49.142;9.124;2023-12-20T14:43:58;3.20;;;0.70;;
79173;SDS011;68599;49.142;9.124;2023-12-20T14:46:26;5.20;;;0.80;;
79173;SDS011;68599;49.142;9.124;2023-12-20T14:48:54;2.50;;;0.70;;
79173;SDS011;68599;49.142;9.124;2023-12-20T14:51:21;4.20;;;0.90;;
79173;SDS011;68599;49.142;9.124;2023-12-20T14:53:47;1.80;;;0.70;;
79173;SDS011;68599;49.142;9.124;2023-12-20T14:56:14;2.70;;;0.80;;
79173;SDS011;68599;49.142;9.124;2023-12-20T14:58:41;3.70;;;0.90;;
79173;SDS011;68599;49.142;9.124;2023-12-20T15:01:08;5.30;;;1.00;;
79173;SDS011;68599;49.142;9.124;2023-12-20T15:03:35;2.20;;;0.60;;
79173;SDS011;68599;49.142;9.124;2023-12-20T15:06:02;6.70;;;0.60;;
79173;SDS011;68599;49.142;9.124;2023-12-20T15:08:29;3.80;;;0.60;;
79173;SDS011;68599;49.142;9.124;2023-12-20T15:10:57;4.50;;;0.60;;
79173;SDS011;68599;49.142;9.124;2023-12-20T15:13:24;3.30;;;0.80;;
79173;SDS011;68599;49.142;9.124;2023-12-20T15:15:50;4.70;;;0.60;;
79173;SDS011;68599;49.142;9.124;2023-12-20T15:18:17;0.80;;;0.30;;